createdAt,value
2019-02-16T00:01:21.193Z,14.20
2019-02-16T00:03:50.326Z,16.13
2019-02-16T00:06:19.590Z,16.60
2019-02-16T00:08:48.728Z,14.33
2019-02-16T00:11:18.027Z,15.27
2019-02-16T00:13:47.113Z,14.47
2019-02-16T00:16:17.332Z,16.87
2019-02-16T00:18:46.444Z,14.63
2019-02-16T00:21:15.813Z,16.60
2019-02-16T00:23:44.872Z,15.17
2019-02-16T00:26:14.143Z,15.83
2019-02-16T00:28:43.351Z,18.90
2019-02-16T00:31:12.515Z,17.50
2019-02-16T00:33:41.708Z,16.90
2019-02-16T00:36:11.861Z,18.20
2019-02-16T00:38:41.282Z,17.53
2019-02-16T00:41:10.352Z,17.37
2019-02-16T00:43:39.392Z,16.03
2019-02-16T00:46:40.432Z,17.77
2019-02-16T00:49:46.812Z,21.00
2019-02-16T00:53:00.801Z,20.83
2019-02-16T00:55:30.000Z,17.27
2019-02-16T00:57:59.312Z,19.67
2019-02-16T01:00:29.454Z,18.23
2019-02-16T01:02:58.549Z,18.17
2019-02-16T01:05:27.981Z,19.37
2019-02-16T01:07:57.158Z,19.43
2019-02-16T01:10:26.585Z,19.57
2019-02-16T01:12:56.046Z,19.70
2019-02-16T01:15:25.114Z,19.13
2019-02-16T01:17:54.511Z,19.40
2019-02-16T01:20:23.806Z,18.20
2019-02-16T01:22:53.929Z,19.20
2019-02-16T01:25:23.234Z,19.83
2019-02-16T01:27:53.874Z,17.57
2019-02-16T01:30:29.547Z,20.37
2019-02-16T01:32:58.941Z,19.60
2019-02-16T01:35:28.175Z,17.20
2019-02-16T01:37:58.216Z,19.70
2019-02-16T01:40:27.387Z,20.13
2019-02-16T01:42:56.565Z,19.87
2019-02-16T01:45:25.753Z,18.57
2019-02-16T01:47:56.010Z,17.43
2019-02-16T01:50:25.277Z,17.50
2019-02-16T01:52:54.634Z,21.73
2019-02-16T01:55:24.094Z,20.37
2019-02-16T01:57:53.939Z,21.07
2019-02-16T02:00:23.131Z,20.87
2019-02-16T02:02:52.335Z,19.43
2019-02-16T02:05:21.615Z,19.97
2019-02-16T02:07:50.839Z,20.20
2019-02-16T02:10:20.091Z,20.77
2019-02-16T02:12:49.230Z,19.47
2019-02-16T02:15:18.527Z,20.50
2019-02-16T02:17:47.767Z,23.40
2019-02-16T02:20:17.153Z,20.53
2019-02-16T02:22:46.246Z,23.20
2019-02-16T02:25:15.956Z,22.50
2019-02-16T02:27:45.183Z,26.57
2019-02-16T02:30:14.851Z,22.93
2019-02-16T02:32:44.048Z,20.30
2019-02-16T02:35:13.294Z,21.70
2019-02-16T02:37:42.799Z,24.63
2019-02-16T02:40:12.091Z,24.57
2019-02-16T02:42:41.414Z,22.13
2019-02-16T02:45:10.950Z,25.23
2019-02-16T02:47:40.176Z,22.17
2019-02-16T02:50:09.411Z,25.13
2019-02-16T02:52:38.955Z,21.10
2019-02-16T02:55:08.200Z,23.47
2019-02-16T02:57:38.308Z,22.27
2019-02-16T03:00:07.999Z,23.93
2019-02-16T03:02:37.275Z,23.07
2019-02-16T03:05:07.681Z,19.07
2019-02-16T03:07:36.960Z,22.53
2019-02-16T03:10:06.496Z,23.87
2019-02-16T03:12:35.724Z,21.80
2019-02-16T03:15:05.377Z,21.97
2019-02-16T03:17:34.568Z,19.77
2019-02-16T03:20:03.932Z,21.07
2019-02-16T03:23:11.805Z,23.80
2019-02-16T03:25:41.881Z,21.43
2019-02-16T03:28:31.208Z,22.40
2019-02-16T03:32:11.951Z,23.67
2019-02-16T03:34:47.074Z,24.83
2019-02-16T03:37:43.220Z,23.20
2019-02-16T03:40:12.744Z,24.77
2019-02-16T03:42:42.101Z,25.60
2019-02-16T03:45:11.355Z,22.67
2019-02-16T03:47:40.535Z,22.87
2019-02-16T03:50:09.947Z,24.27
2019-02-16T03:52:39.257Z,24.17
2019-02-16T03:55:08.631Z,22.87
2019-02-16T03:57:37.892Z,21.13
2019-02-16T04:00:07.987Z,23.03
2019-02-16T04:02:37.227Z,25.13
2019-02-16T04:05:06.769Z,24.10
2019-02-16T04:07:36.155Z,26.83
2019-02-16T04:10:05.776Z,21.63
2019-02-16T04:12:35.000Z,22.10
2019-02-16T04:15:05.150Z,24.90
2019-02-16T04:17:34.405Z,22.53
2019-02-16T04:20:03.737Z,24.07
2019-02-16T04:22:32.981Z,24.00
2019-02-16T04:25:02.178Z,23.80
2019-02-16T04:27:31.602Z,23.60
2019-02-16T04:30:04.274Z,25.10
2019-02-16T04:32:33.425Z,19.97
2019-02-16T04:35:02.632Z,23.00
2019-02-16T04:37:31.856Z,25.43
2019-02-16T04:40:00.988Z,22.43
2019-02-16T04:42:30.214Z,21.77
2019-02-16T04:44:59.494Z,24.53
2019-02-16T04:47:28.579Z,25.13
2019-02-16T04:49:57.741Z,21.10
2019-02-16T04:52:34.241Z,25.67
2019-02-16T04:54:57.551Z,24.80
2019-02-16T04:57:26.823Z,25.57
2019-02-16T04:59:55.943Z,25.33
2019-02-16T05:02:25.093Z,25.73
2019-02-16T05:04:54.333Z,23.30
2019-02-16T05:07:24.087Z,23.63
2019-02-16T05:09:53.187Z,26.80
2019-02-16T05:12:22.351Z,26.20
2019-02-16T05:14:51.627Z,25.73
2019-02-16T05:17:20.750Z,25.53
2019-02-16T05:19:50.382Z,22.57
2019-02-16T05:22:19.471Z,26.77
2019-02-16T05:24:55.713Z,24.03
2019-02-16T05:27:25.095Z,24.57
2019-02-16T05:29:54.135Z,26.37
2019-02-16T05:32:23.268Z,26.03
2019-02-16T05:34:52.326Z,26.10
2019-02-16T05:37:21.407Z,31.87
2019-02-16T05:39:50.661Z,25.00
2019-02-16T05:42:19.733Z,25.53
2019-02-16T05:44:49.220Z,27.57
2019-02-16T05:47:18.624Z,27.80
2019-02-16T05:49:47.673Z,26.57
2019-02-16T05:52:16.991Z,25.00
2019-02-16T05:54:46.058Z,21.57
2019-02-16T05:57:15.296Z,24.97
2019-02-16T05:59:44.363Z,24.83
2019-02-16T06:02:13.504Z,26.77
2019-02-16T06:04:42.787Z,25.07
2019-02-16T06:07:12.193Z,23.60
2019-02-16T06:09:41.339Z,24.07
2019-02-16T06:12:10.530Z,25.93
2019-02-16T06:14:44.210Z,25.90
2019-02-16T06:17:13.415Z,25.60
2019-02-16T06:19:47.067Z,28.23
2019-02-16T06:22:16.075Z,27.97
2019-02-16T06:24:48.294Z,23.03
2019-02-16T06:27:17.338Z,26.97
2019-02-16T06:29:46.494Z,27.20
2019-02-16T06:32:17.279Z,23.67
2019-02-16T06:34:46.539Z,23.10
2019-02-16T06:37:26.640Z,24.77
2019-02-16T06:39:55.701Z,26.97
2019-02-16T06:42:25.177Z,24.77
2019-02-16T06:44:54.712Z,24.50
2019-02-16T06:47:24.507Z,24.70
2019-02-16T06:49:53.711Z,26.33
2019-02-16T06:52:25.630Z,27.20
2019-02-16T06:54:54.669Z,26.87
2019-02-16T06:57:26.914Z,22.60
2019-02-16T07:00:01.616Z,29.03
2019-02-16T07:02:30.942Z,27.23
2019-02-16T07:05:08.583Z,27.60
2019-02-16T07:07:37.964Z,26.03
2019-02-16T07:10:10.276Z,25.60
2019-02-16T07:12:42.230Z,26.03
2019-02-16T07:15:12.478Z,24.13
2019-02-16T07:17:47.142Z,25.93
2019-02-16T07:20:20.112Z,23.77
2019-02-16T07:22:49.538Z,24.93
2019-02-16T07:25:20.009Z,27.97
2019-02-16T07:27:52.003Z,25.50
2019-02-16T07:30:32.868Z,27.43
2019-02-16T07:32:59.867Z,27.97
2019-02-16T07:35:28.810Z,26.43
2019-02-16T07:38:01.135Z,23.77
2019-02-16T07:40:31.733Z,27.47
2019-02-16T07:43:07.607Z,27.43
2019-02-16T07:46:02.659Z,29.20
2019-02-16T07:48:55.337Z,31.97
2019-02-16T07:55:14.193Z,26.80
2019-02-16T07:57:50.092Z,30.60
2019-02-16T08:00:40.162Z,26.13
2019-02-16T08:03:43.691Z,28.43
2019-02-16T08:06:30.367Z,27.90
2019-02-16T08:09:18.734Z,26.67
2019-02-16T08:11:58.709Z,26.53
2019-02-16T08:14:33.933Z,25.40
2019-02-16T08:17:28.236Z,24.53
2019-02-16T08:20:05.741Z,24.90
2019-02-16T08:22:59.808Z,27.30
2019-02-16T08:25:48.024Z,27.03
2019-02-16T08:28:22.251Z,25.37
2019-02-16T08:31:03.403Z,24.30
2019-02-16T08:33:54.926Z,24.80
2019-02-16T08:36:58.556Z,29.53
2019-02-16T08:39:45.448Z,28.70
2019-02-16T08:42:38.586Z,27.90
2019-02-16T08:46:21.404Z,27.97
2019-02-16T08:49:13.999Z,25.33
2019-02-16T08:51:52.272Z,29.63
2019-02-16T08:54:39.139Z,31.00
2019-02-16T08:57:36.235Z,30.97
2019-02-16T09:00:30.337Z,29.83
2019-02-16T09:03:19.472Z,33.53
2019-02-16T09:06:10.714Z,31.10
2019-02-16T09:09:06.507Z,26.37
2019-02-16T09:11:45.177Z,27.07
2019-02-16T09:14:30.525Z,37.17
2019-02-16T09:17:18.944Z,26.53
2019-02-16T09:20:42.526Z,26.43
2019-02-16T09:23:29.482Z,28.10
2019-02-16T09:26:23.386Z,26.40
2019-02-16T09:29:12.045Z,27.83
2019-02-16T09:32:15.330Z,29.70
2019-02-16T09:35:05.571Z,31.57
2019-02-16T09:37:43.213Z,30.00
2019-02-16T09:40:29.921Z,28.63
2019-02-16T09:43:09.661Z,27.80
2019-02-16T09:45:56.286Z,29.80
2019-02-16T09:48:54.441Z,27.60
2019-02-16T09:51:30.454Z,25.07
2019-02-16T09:54:21.568Z,25.80
2019-02-16T09:57:08.522Z,30.63
2019-02-16T09:59:55.155Z,25.63
2019-02-16T10:02:48.991Z,25.53
2019-02-16T10:05:40.611Z,30.70
2019-02-16T10:08:21.939Z,30.00
2019-02-16T10:11:07.603Z,31.57
2019-02-16T10:13:59.047Z,29.70
2019-02-16T10:16:41.979Z,26.67
2019-02-16T10:19:39.542Z,28.23
2019-02-16T10:22:33.417Z,25.33
2019-02-16T10:25:12.571Z,28.43
2019-02-16T10:28:01.006Z,26.83
2019-02-16T10:31:01.542Z,25.70
2019-02-16T10:33:48.662Z,27.57
2019-02-16T10:36:24.843Z,26.77
2019-02-16T10:39:02.087Z,30.37
2019-02-16T10:41:48.999Z,28.63
2019-02-16T10:44:42.878Z,26.50
2019-02-16T10:47:21.023Z,29.33
2019-02-16T10:50:12.093Z,27.80
2019-02-16T10:52:58.610Z,27.43
2019-02-16T10:55:41.370Z,27.03
2019-02-16T10:58:29.612Z,27.57
2019-02-16T11:01:16.383Z,28.80
2019-02-16T11:04:19.577Z,29.77
2019-02-16T11:06:56.505Z,26.97
2019-02-16T11:09:44.672Z,28.43
2019-02-16T11:12:31.796Z,31.00
2019-02-16T11:15:23.174Z,30.93
2019-02-16T11:18:20.974Z,27.30
2019-02-16T11:21:15.167Z,27.67
2019-02-16T11:24:19.332Z,28.90
2019-02-16T11:27:01.211Z,27.97
2019-02-16T11:29:44.005Z,28.60
2019-02-16T11:32:38.230Z,29.03
2019-02-16T11:35:32.830Z,28.50
2019-02-16T11:38:23.299Z,28.03
2019-02-16T11:41:08.921Z,27.30
2019-02-16T11:43:48.944Z,31.67
2019-02-16T11:46:52.153Z,27.20
2019-02-16T11:49:39.312Z,28.97
2019-02-16T11:52:29.479Z,27.03
2019-02-16T11:55:30.833Z,28.87
2019-02-16T11:58:24.941Z,27.13
2019-02-16T12:01:13.060Z,27.33
2019-02-16T12:03:56.651Z,27.13
2019-02-16T12:06:39.120Z,27.60
2019-02-16T12:09:18.248Z,27.43
2019-02-16T12:11:57.420Z,28.97
2019-02-16T12:14:48.479Z,26.53
2019-02-16T12:17:44.041Z,29.27
2019-02-16T12:20:33.377Z,28.17
2019-02-16T12:23:20.477Z,26.77
2019-02-16T12:26:00.518Z,29.77
2019-02-16T12:28:52.039Z,26.68
2019-02-16T12:31:48.097Z,25.92
2019-02-16T12:34:35.008Z,27.30
2019-02-16T12:37:10.741Z,27.93
2019-02-16T12:39:51.782Z,26.23
2019-02-16T12:42:42.948Z,28.40
2019-02-16T12:45:23.323Z,27.25
2019-02-16T12:48:10.486Z,28.17
2019-02-16T12:50:59.432Z,26.10
2019-02-16T12:53:56.178Z,27.47
2019-02-16T12:56:43.108Z,29.57
2019-02-16T12:59:34.757Z,29.50
2019-02-16T13:02:31.781Z,27.20
2019-02-16T13:05:28.798Z,28.42
2019-02-16T13:08:19.689Z,29.07
2019-02-16T13:11:09.814Z,28.90
2019-02-16T13:14:11.071Z,31.00
2019-02-16T13:17:02.512Z,29.83
2019-02-16T13:19:49.395Z,30.95
2019-02-16T13:22:36.394Z,30.73
2019-02-16T13:25:12.143Z,29.18
2019-02-16T13:27:59.090Z,27.00
2019-02-16T13:30:48.092Z,29.33
2019-02-16T13:33:24.382Z,28.67
2019-02-16T13:36:09.106Z,26.30
2019-02-16T13:38:57.417Z,27.27
2019-02-16T13:41:35.902Z,28.75
2019-02-16T13:44:15.592Z,26.37
2019-02-16T13:47:03.417Z,28.60
2019-02-16T13:49:44.082Z,28.57
2019-02-16T13:52:24.794Z,30.75
2019-02-16T13:55:14.419Z,26.62
2019-02-16T13:57:54.123Z,27.80
2019-02-16T14:00:35.151Z,27.67
2019-02-16T14:03:26.171Z,24.57
2019-02-16T14:06:17.403Z,25.15
2019-02-16T14:09:08.950Z,27.30
2019-02-16T14:11:55.578Z,32.55
2019-02-16T14:14:49.748Z,29.02
2019-02-16T14:17:45.116Z,29.27
2019-02-16T14:20:14.289Z,28.05
2019-02-16T14:22:43.544Z,27.05
2019-02-16T14:25:19.257Z,30.35
2019-02-16T14:27:49.438Z,26.40
2019-02-16T14:30:18.542Z,28.02
2019-02-16T14:32:47.813Z,30.12
2019-02-16T14:35:16.910Z,30.25
2019-02-16T14:37:54.042Z,29.72
2019-02-16T14:40:26.813Z,31.85
2019-02-16T14:42:56.046Z,30.70
2019-02-16T14:45:25.152Z,31.73
2019-02-16T14:47:54.753Z,31.62
2019-02-16T14:50:23.808Z,28.95
2019-02-16T14:52:52.866Z,30.20
2019-02-16T14:55:21.809Z,32.98
2019-02-16T14:57:50.907Z,34.63
2019-02-16T15:00:20.472Z,29.33
2019-02-16T15:02:49.738Z,30.20
2019-02-16T15:05:19.014Z,29.57
2019-02-16T15:07:48.226Z,31.62
2019-02-16T15:10:17.497Z,32.00
2019-02-16T15:12:48.128Z,30.68
2019-02-16T15:15:24.702Z,32.67
2019-02-16T15:17:53.905Z,27.65
2019-02-16T15:20:23.126Z,35.23
2019-02-16T15:22:53.044Z,31.65
2019-02-16T15:25:22.157Z,34.10
2019-02-16T15:27:51.619Z,34.20
2019-02-16T15:30:21.173Z,29.92
2019-02-16T15:32:51.359Z,30.75
2019-02-16T15:35:21.520Z,33.95
2019-02-16T15:37:50.730Z,30.77
2019-02-16T15:40:19.854Z,34.48
2019-02-16T15:42:49.054Z,32.50
2019-02-16T15:45:18.437Z,33.18
2019-02-16T15:47:50.570Z,31.00
2019-02-16T15:50:19.646Z,32.40
2019-02-16T15:52:49.441Z,36.65
2019-02-16T15:55:18.597Z,33.98
2019-02-16T15:57:47.766Z,32.13
2019-02-16T16:00:19.332Z,33.98
2019-02-16T16:02:48.574Z,31.20
2019-02-16T16:05:17.645Z,36.35
2019-02-16T16:07:51.169Z,40.63
2019-02-16T16:10:32.933Z,38.55
2019-02-16T16:13:14.997Z,38.20
2019-02-16T16:16:09.353Z,39.30
2019-02-16T16:19:00.527Z,32.75
2019-02-16T16:21:40.461Z,36.35
2019-02-16T16:24:40.601Z,35.43
2019-02-16T16:27:31.721Z,31.77
2019-02-16T16:30:19.877Z,38.42
2019-02-16T16:33:08.301Z,33.00
2019-02-16T16:35:51.046Z,35.65
2019-02-16T16:38:29.266Z,35.80
2019-02-16T16:41:11.901Z,36.65
2019-02-16T16:43:55.905Z,33.50
2019-02-16T16:46:42.834Z,36.33
2019-02-16T16:49:37.356Z,36.63
2019-02-16T16:52:19.865Z,32.90
2019-02-16T16:55:03.517Z,37.60
2019-02-16T16:57:51.544Z,33.60
2019-02-16T17:00:42.144Z,38.17
2019-02-16T17:03:40.795Z,36.98
2019-02-16T17:06:18.051Z,33.40
2019-02-16T17:09:24.314Z,38.40
2019-02-16T17:12:16.345Z,39.37
2019-02-16T17:15:15.541Z,36.98
2019-02-16T17:18:07.007Z,40.03
2019-02-16T17:20:56.669Z,40.92
2019-02-16T17:23:46.756Z,41.65
2019-02-16T17:26:37.774Z,38.40
2019-02-16T17:29:33.187Z,36.90
2019-02-16T17:32:24.883Z,37.27
2019-02-16T17:35:13.016Z,40.85
2019-02-16T17:38:04.005Z,34.58
2019-02-16T17:40:48.345Z,41.28
2019-02-16T17:43:35.584Z,36.83
2019-02-16T17:46:25.182Z,37.80
2019-02-16T17:49:26.020Z,36.43
2019-02-16T17:52:12.931Z,36.27
2019-02-16T17:55:00.326Z,42.30
2019-02-16T17:57:54.806Z,38.35
2019-02-16T18:00:42.168Z,37.70
2019-02-16T18:03:28.990Z,35.73
2019-02-16T18:06:17.442Z,38.57
2019-02-16T18:09:04.895Z,38.40
2019-02-16T18:11:52.176Z,41.33
2019-02-16T18:14:38.907Z,39.30
2019-02-16T18:17:22.598Z,41.60
2019-02-16T18:20:10.874Z,41.77
2019-02-16T18:22:49.261Z,41.80
2019-02-16T18:25:27.914Z,44.80
2019-02-16T18:28:19.628Z,41.53
2019-02-16T18:31:17.015Z,45.03
2019-02-16T18:34:00.809Z,40.07
2019-02-16T18:36:48.096Z,39.27
2019-02-16T18:39:54.442Z,41.37
2019-02-16T18:42:42.623Z,45.43
2019-02-16T18:45:45.767Z,41.83
2019-02-16T18:48:37.177Z,45.20
2019-02-16T18:51:18.452Z,39.43
2019-02-16T18:54:09.671Z,41.73
2019-02-16T18:57:06.393Z,41.80
2019-02-16T18:59:40.942Z,41.60
2019-02-16T19:02:19.506Z,45.67
2019-02-16T19:05:14.566Z,41.70
2019-02-16T19:08:08.434Z,43.90
2019-02-16T19:11:15.118Z,46.57
2019-02-16T19:13:52.319Z,43.40
2019-02-16T19:16:36.862Z,42.40
2019-02-16T19:19:16.536Z,40.17
2019-02-16T19:21:55.317Z,40.37
2019-02-16T19:24:46.315Z,45.47
2019-02-16T19:27:40.318Z,41.40
2019-02-16T19:30:26.959Z,40.70
2019-02-16T19:33:03.807Z,39.87
2019-02-16T19:35:39.938Z,39.50
2019-02-16T19:38:15.552Z,41.70
2019-02-16T19:41:12.803Z,40.77
2019-02-16T19:43:58.238Z,41.73
2019-02-16T19:46:55.348Z,39.93
2019-02-16T19:49:52.603Z,37.63
2019-02-16T19:52:40.575Z,43.60
2019-02-16T19:55:38.026Z,43.93
2019-02-16T19:58:19.860Z,43.37
2019-02-16T20:00:59.237Z,39.83
2019-02-16T20:03:45.747Z,41.33
2019-02-16T20:06:37.930Z,41.37
2019-02-16T20:09:25.390Z,40.50
2019-02-16T20:12:05.053Z,39.40
2019-02-16T20:15:09.790Z,38.37
2019-02-16T20:17:57.176Z,37.87
2019-02-16T20:20:45.359Z,37.17
2019-02-16T20:23:48.942Z,38.93
2019-02-16T20:26:42.931Z,39.93
2019-02-16T20:29:16.688Z,34.07
2019-02-16T20:31:55.560Z,40.60
2019-02-16T20:34:43.755Z,37.17
2019-02-16T20:37:30.362Z,39.37
2019-02-16T20:40:13.045Z,38.10
2019-02-16T20:43:10.185Z,37.13
2019-02-16T20:45:57.840Z,43.47
2019-02-16T20:48:48.743Z,44.03
2019-02-16T20:51:42.186Z,41.07
2019-02-16T20:54:30.874Z,40.57
2019-02-16T20:57:06.589Z,39.43
2019-02-16T20:59:50.248Z,39.33
2019-02-16T21:02:29.644Z,44.53
2019-02-16T21:05:18.818Z,43.43
2019-02-16T21:08:10.518Z,41.10
2019-02-16T21:10:48.506Z,40.23
2019-02-16T21:13:42.765Z,41.37
2019-02-16T21:16:31.745Z,41.13
2019-02-16T21:19:14.324Z,40.17
2019-02-16T21:22:11.363Z,43.47
2019-02-16T21:25:03.367Z,42.73
2019-02-16T21:27:57.415Z,44.50
2019-02-16T21:30:37.233Z,40.57
2019-02-16T21:33:15.620Z,41.40
2019-02-16T21:36:07.056Z,41.97
2019-02-16T21:38:47.111Z,48.50
2019-02-16T21:41:35.936Z,45.30
2019-02-16T21:44:19.798Z,45.40
2019-02-16T21:46:59.417Z,48.37
2019-02-16T21:49:39.321Z,46.40
2019-02-16T21:52:38.658Z,41.07
2019-02-16T21:55:27.049Z,47.17
2019-02-16T21:58:30.400Z,52.57
2019-02-16T22:01:21.673Z,46.63
2019-02-16T22:03:59.548Z,45.40
2019-02-16T22:06:46.334Z,45.43
2019-02-16T22:09:29.531Z,47.13
2019-02-16T22:12:16.674Z,50.83
2019-02-16T22:14:45.974Z,46.40
2019-02-16T22:17:15.031Z,52.53
2019-02-16T22:19:44.046Z,45.60
2019-02-16T22:22:13.142Z,47.87
2019-02-16T22:24:42.151Z,51.20
2019-02-16T22:27:11.216Z,46.80
2019-02-16T22:29:40.288Z,50.27
2019-02-16T22:32:09.436Z,55.00
2019-02-16T22:34:38.833Z,49.50
2019-02-16T22:37:07.982Z,48.17
2019-02-16T22:39:37.098Z,47.90
2019-02-16T22:42:06.481Z,53.67
2019-02-16T22:44:35.797Z,50.90
2019-02-16T22:47:05.112Z,53.60
2019-02-16T22:49:34.277Z,52.97
2019-02-16T22:52:03.756Z,56.67
2019-02-16T22:54:33.177Z,52.77
2019-02-16T22:57:02.466Z,54.20
2019-02-16T22:59:32.097Z,51.50
2019-02-16T23:02:02.777Z,53.70
2019-02-16T23:04:32.211Z,56.83
2019-02-16T23:07:01.843Z,56.80
2019-02-16T23:09:33.127Z,54.50
2019-02-16T23:12:04.097Z,52.87
2019-02-16T23:14:33.575Z,51.77
2019-02-16T23:17:02.720Z,51.13
2019-02-16T23:19:32.147Z,53.80
2019-02-16T23:22:02.222Z,53.83
2019-02-16T23:24:32.166Z,47.83
2019-02-16T23:27:02.071Z,46.40
2019-02-16T23:29:31.361Z,46.20
2019-02-16T23:32:00.669Z,47.00
2019-02-16T23:34:30.114Z,49.43
2019-02-16T23:36:59.378Z,49.97
2019-02-16T23:39:28.657Z,44.57
2019-02-16T23:41:58.102Z,43.83
2019-02-16T23:44:27.299Z,46.60
2019-02-16T23:46:57.397Z,45.03
2019-02-16T23:49:28.601Z,45.87
2019-02-16T23:51:58.795Z,49.00
2019-02-16T23:54:27.866Z,48.23
2019-02-16T23:56:57.394Z,51.27
2019-02-16T23:59:26.706Z,48.10
